sensor_id;sensor_type;location;lat;lon;timestamp;pressure;altitude;pressure_sealevel;temperature;humidity
60719;BME280;46567;51.660;5.824;2023-05-11T00:01:59;130530.0;;;190.6;100.0
60719;BME280;46567;51.660;5.824;2023-05-11T00:06:59;130530.0;;;190.6;100.0
60719;BME280;46567;51.660;5.824;2023-05-11T00:11:59;130520.0;;;190.6;100.0
60719;BME280;46567;51.660;5.824;2023-05-11T00:16:59;130520.0;;;190.6;100.0
60719;BME280;46567;51.660;5.824;2023-05-11T00:21:59;130520.0;;;190.6;100.0
60719;BME280;46567;51.660;5.824;2023-05-11T00:26:59;130540.0;;;190.6;100.0
60719;BME280;46567;51.660;5.824;2023-05-11T00:31:59;130550.0;;;190.6;100.0
60719;BME280;46567;51.660;5.824;2023-05-11T00:36:59;130550.0;;;190.6;100.0
60719;BME280;46567;51.660;5.824;2023-05-11T00:41:59;130550.0;;;190.6;100.0
60719;BME280;46567;51.660;5.824;2023-05-11T00:46:59;130550.0;;;190.6;100.0
60719;BME280;46567;51.660;5.824;2023-05-11T00:51:59;130560.0;;;190.6;100.0
60719;BME280;46567;51.660;5.824;2023-05-11T00:56:59;130560.0;;;190.6;100.0
60719;BME280;46567;51.660;5.824;2023-05-11T01:01:59;130560.0;;;190.6;100.0
60719;BME280;46567;51.660;5.824;2023-05-11T01:07:03;130550.0;;;190.6;100.0
60719;BME280;46567;51.660;5.824;2023-05-11T01:12:26;130560.0;;;190.6;100.0
60719;BME280;46567;51.660;5.824;2023-05-11T01:17:03;130560.0;;;190.6;100.0
60719;BME280;46567;51.660;5.824;2023-05-11T01:22:02;130570.0;;;190.6;100.0
60719;BME280;46567;51.660;5.824;2023-05-11T01:29:00;130570.0;;;190.6;100.0
60719;BME280;46567;51.660;5.824;2023-05-11T01:32:08;130580.0;;;190.6;100.0
60719;BME280;46567;51.660;5.824;2023-05-11T01:37:04;130570.0;;;190.6;100.0
60719;BME280;46567;51.660;5.824;2023-05-11T01:42:04;130580.0;;;190.6;100.0
60719;BME280;46567;51.660;5.824;2023-05-11T01:47:00;130580.0;;;190.6;100.0
60719;BME280;46567;51.660;5.824;2023-05-11T01:52:00;130580.0;;;190.6;100.0
60719;BME280;46567;51.660;5.824;2023-05-11T01:57:00;130580.0;;;190.6;100.0
60719;BME280;46567;51.660;5.824;2023-05-11T02:02:00;130600.0;;;190.6;100.0
60719;BME280;46567;51.660;5.824;2023-05-11T02:07:00;130590.0;;;190.6;100.0
60719;BME280;46567;51.660;5.824;2023-05-11T02:11:59;130590.0;;;190.6;100.0
60719;BME280;46567;51.660;5.824;2023-05-11T02:17:00;130600.0;;;190.6;100.0
60719;BME280;46567;51.660;5.824;2023-05-11T02:22:00;130600.0;;;190.6;100.0
60719;BME280;46567;51.660;5.824;2023-05-11T02:26:59;130600.0;;;190.6;100.0
60719;BME280;46567;51.660;5.824;2023-05-11T02:32:05;130600.0;;;190.6;100.0
60719;BME280;46567;51.660;5.824;2023-05-11T02:37:01;130590.0;;;190.6;100.0
60719;BME280;46567;51.660;5.824;2023-05-11T02:42:03;130600.0;;;190.6;100.0
60719;BME280;46567;51.660;5.824;2023-05-11T02:47:01;130590.0;;;190.6;100.0
60719;BME280;46567;51.660;5.824;2023-05-11T02:52:00;130590.0;;;190.6;100.0
60719;BME280;46567;51.660;5.824;2023-05-11T02:56:59;130580.0;;;190.6;100.0
60719;BME280;46567;51.660;5.824;2023-05-11T03:01:59;130590.0;;;190.6;100.0
60719;BME280;46567;51.660;5.824;2023-05-11T03:06:59;130600.0;;;190.6;100.0
60719;BME280;46567;51.660;5.824;2023-05-11T03:12:00;130590.0;;;190.6;100.0
60719;BME280;46567;51.660;5.824;2023-05-11T03:17:00;130590.0;;;190.6;100.0
60719;BME280;46567;51.660;5.824;2023-05-11T03:21:59;130600.0;;;190.6;100.0
60719;BME280;46567;51.660;5.824;2023-05-11T03:27:00;130600.0;;;190.6;100.0
60719;BME280;46567;51.660;5.824;2023-05-11T03:36:59;130600.0;;;190.6;100.0
60719;BME280;46567;51.660;5.824;2023-05-11T03:41:59;130600.0;;;190.6;100.0
60719;BME280;46567;51.660;5.824;2023-05-11T03:46:59;130600.0;;;190.6;100.0
60719;BME280;46567;51.660;5.824;2023-05-11T03:51:59;130600.0;;;190.6;100.0
60719;BME280;46567;51.660;5.824;2023-05-11T03:56:59;130610.0;;;190.6;100.0
60719;BME280;46567;51.660;5.824;2023-05-11T04:01:59;130600.0;;;190.6;100.0
60719;BME280;46567;51.660;5.824;2023-05-11T04:06:59;130600.0;;;190.6;100.0
60719;BME280;46567;51.660;5.824;2023-05-11T04:11:59;130600.0;;;190.6;100.0
60719;BME280;46567;51.660;5.824;2023-05-11T04:16:59;130610.0;;;190.6;100.0
60719;BME280;46567;51.660;5.824;2023-05-11T04:21:59;130620.0;;;190.6;100.0
60719;BME280;46567;51.660;5.824;2023-05-11T04:26:59;130620.0;;;190.6;100.0
60719;BME280;46567;51.660;5.824;2023-05-11T04:31:59;130620.0;;;190.6;100.0
60719;BME280;46567;51.660;5.824;2023-05-11T04:36:59;130630.0;;;190.6;100.0
60719;BME280;46567;51.660;5.824;2023-05-11T04:41:59;130630.0;;;190.6;100.0
60719;BME280;46567;51.660;5.824;2023-05-11T04:46:59;130630.0;;;190.6;100.0
60719;BME280;46567;51.660;5.824;2023-05-11T04:51:59;130630.0;;;190.6;100.0
60719;BME280;46567;51.660;5.824;2023-05-11T04:56:59;130620.0;;;190.6;100.0
60719;BME280;46567;51.660;5.824;2023-05-11T05:01:59;130610.0;;;190.6;100.0
60719;BME280;46567;51.660;5.824;2023-05-11T05:06:59;130610.0;;;190.6;100.0
60719;BME280;46567;51.660;5.824;2023-05-11T05:11:59;130600.0;;;190.6;100.0
60719;BME280;46567;51.660;5.824;2023-05-11T05:16:59;130590.0;;;190.6;100.0
60719;BME280;46567;51.660;5.824;2023-05-11T05:21:59;130600.0;;;190.6;100.0
60719;BME280;46567;51.660;5.824;2023-05-11T05:26:59;130570.0;;;190.6;100.0
60719;BME280;46567;51.660;5.824;2023-05-11T05:31:59;130540.0;;;190.6;100.0
60719;BME280;46567;51.660;5.824;2023-05-11T05:36:59;130520.0;;;190.6;100.0
60719;BME280;46567;51.660;5.824;2023-05-11T05:41:59;130500.0;;;190.6;100.0
60719;BME280;46567;51.660;5.824;2023-05-11T05:46:59;130490.0;;;190.6;100.0
60719;BME280;46567;51.660;5.824;2023-05-11T05:51:59;130490.0;;;190.6;100.0
60719;BME280;46567;51.660;5.824;2023-05-11T05:56:59;130470.0;;;190.6;100.0
60719;BME280;46567;51.660;5.824;2023-05-11T06:01:59;130440.0;;;190.6;100.0
60719;BME280;46567;51.660;5.824;2023-05-11T06:06:59;130430.0;;;190.6;100.0
60719;BME280;46567;51.660;5.824;2023-05-11T06:11:59;130410.0;;;190.6;100.0
60719;BME280;46567;51.660;5.824;2023-05-11T06:16:59;130420.0;;;190.6;100.0
60719;BME280;46567;51.660;5.824;2023-05-11T06:21:59;130410.0;;;190.6;100.0
60719;BME280;46567;51.660;5.824;2023-05-11T06:26:59;130430.0;;;190.6;100.0
60719;BME280;46567;51.660;5.824;2023-05-11T06:31:59;130450.0;;;190.6;100.0
60719;BME280;46567;51.660;5.824;2023-05-11T06:36:59;130460.0;;;190.6;100.0
60719;BME280;46567;51.660;5.824;2023-05-11T06:41:59;130440.0;;;190.6;100.0
60719;BME280;46567;51.660;5.824;2023-05-11T06:46:59;130410.0;;;190.6;100.0
60719;BME280;46567;51.660;5.824;2023-05-11T06:51:59;130410.0;;;190.6;100.0
60719;BME280;46567;51.660;5.824;2023-05-11T06:56:59;130380.0;;;190.6;100.0
60719;BME280;46567;51.660;5.824;2023-05-11T07:01:59;130350.0;;;190.6;100.0
60719;BME280;46567;51.660;5.824;2023-05-11T07:06:59;130350.0;;;190.6;100.0
60719;BME280;46567;51.660;5.824;2023-05-11T07:11:59;130350.0;;;190.6;100.0
60719;BME280;46567;51.660;5.824;2023-05-11T07:16:59;130350.0;;;190.6;100.0
60719;BME280;46567;51.660;5.824;2023-05-11T07:21:59;130350.0;;;190.6;100.0
60719;BME280;46567;51.660;5.824;2023-05-11T07:26:59;130340.0;;;190.6;100.0
60719;BME280;46567;51.660;5.824;2023-05-11T07:31:59;130320.0;;;190.6;100.0
60719;BME280;46567;51.660;5.824;2023-05-11T07:36:59;130300.0;;;190.6;100.0
60719;BME280;46567;51.660;5.824;2023-05-11T07:41:59;130280.0;;;190.6;100.0
60719;BME280;46567;51.660;5.824;2023-05-11T07:46:59;130260.0;;;190.6;100.0
60719;BME280;46567;51.660;5.824;2023-05-11T07:51:59;130260.0;;;190.6;100.0
60719;BME280;46567;51.660;5.824;2023-05-11T07:57:00;130250.0;;;190.6;100.0
60719;BME280;46567;51.660;5.824;2023-05-11T08:01:59;130240.0;;;190.6;100.0
60719;BME280;46567;51.660;5.824;2023-05-11T08:06:59;130210.0;;;190.6;100.0
60719;BME280;46567;51.660;5.824;2023-05-11T08:11:59;130200.0;;;190.6;100.0
60719;BME280;46567;51.660;5.824;2023-05-11T08:16:59;130190.0;;;190.6;100.0
60719;BME280;46567;51.660;5.824;2023-05-11T08:21:59;130160.0;;;190.6;100.0
60719;BME280;46567;51.660;5.824;2023-05-11T08:26:59;130150.0;;;190.6;100.0
60719;BME280;46567;51.660;5.824;2023-05-11T08:31:59;130140.0;;;190.6;99.5
60719;BME280;46567;51.660;5.824;2023-05-11T08:36:59;130120.0;;;190.6;99.5
60719;BME280;46567;51.660;5.824;2023-05-11T08:42:01;130100.0;;;190.6;98.5
60719;BME280;46567;51.660;5.824;2023-05-11T08:46:59;130090.0;;;190.6;99.0
60719;BME280;46567;51.660;5.824;2023-05-11T08:52:02;130060.0;;;190.6;98.5
60719;BME280;46567;51.660;5.824;2023-05-11T08:57:00;130020.0;;;190.6;97.5
60719;BME280;46567;51.660;5.824;2023-05-11T09:01:59;129980.0;;;190.6;95.0
60719;BME280;46567;51.660;5.824;2023-05-11T09:06:59;129950.0;;;190.6;93.0
60719;BME280;46567;51.660;5.824;2023-05-11T09:11:59;129930.0;;;190.6;91.5
60719;BME280;46567;51.660;5.824;2023-05-11T09:16:59;129930.0;;;190.6;91.5
60719;BME280;46567;51.660;5.824;2023-05-11T09:21:59;129920.0;;;190.6;91.0
60719;BME280;46567;51.660;5.824;2023-05-11T09:27:05;129880.0;;;190.6;91.5
60719;BME280;46567;51.660;5.824;2023-05-11T09:31:59;129830.0;;;190.6;91.5
60719;BME280;46567;51.660;5.824;2023-05-11T09:36:59;129810.0;;;190.6;88.0
60719;BME280;46567;51.660;5.824;2023-05-11T09:42:16;129820.0;;;190.6;87.0
60719;BME280;46567;51.660;5.824;2023-05-11T09:47:09;129830.0;;;190.6;88.0
60719;BME280;46567;51.660;5.824;2023-05-11T09:52:00;129850.0;;;190.6;87.5
60719;BME280;46567;51.660;5.824;2023-05-11T09:56:59;129880.0;;;190.6;88.0
60719;BME280;46567;51.660;5.824;2023-05-11T10:02:15;129950.0;;;190.6;86.5
60719;BME280;46567;51.660;5.824;2023-05-11T10:06:59;129990.0;;;190.6;87.5
60719;BME280;46567;51.660;5.824;2023-05-11T10:12:00;130050.0;;;190.6;89.0
60719;BME280;46567;51.660;5.824;2023-05-11T10:17:00;130050.0;;;190.6;90.0
60719;BME280;46567;51.660;5.824;2023-05-11T10:22:00;130080.0;;;190.6;91.0
60719;BME280;46567;51.660;5.824;2023-05-11T10:26:59;130120.0;;;190.6;91.5
60719;BME280;46567;51.660;5.824;2023-05-11T10:32:00;130130.0;;;190.6;93.5
60719;BME280;46567;51.660;5.824;2023-05-11T10:36:59;130170.0;;;190.6;94.0
60719;BME280;46567;51.660;5.824;2023-05-11T10:42:32;130200.0;;;190.6;95.0
60719;BME280;46567;51.660;5.824;2023-05-11T10:49:50;130220.0;;;190.6;96.0
60719;BME280;46567;51.660;5.824;2023-05-11T10:56:12;130240.0;;;190.6;96.5
60719;BME280;46567;51.660;5.824;2023-05-11T11:01:43;130270.0;;;190.6;98.0
60719;BME280;46567;51.660;5.824;2023-05-11T11:02:09;130280.0;;;190.6;99.0
60719;BME280;46567;51.660;5.824;2023-05-11T11:07:04;130290.0;;;190.6;100.0
60719;BME280;46567;51.660;5.824;2023-05-11T11:12:08;130290.0;;;190.6;100.0
60719;BME280;46567;51.660;5.824;2023-05-11T11:17:24;130310.0;;;190.6;100.0
60719;BME280;46567;51.660;5.824;2023-05-11T11:22:00;130310.0;;;190.6;100.0
60719;BME280;46567;51.660;5.824;2023-05-11T11:26:59;130300.0;;;190.6;100.0
60719;BME280;46567;51.660;5.824;2023-05-11T11:32:24;130300.0;;;190.6;100.0
60719;BME280;46567;51.660;5.824;2023-05-11T11:37:08;130280.0;;;190.6;100.0
60719;BME280;46567;51.660;5.824;2023-05-11T11:42:00;130270.0;;;190.6;100.0
60719;BME280;46567;51.660;5.824;2023-05-11T11:47:09;130260.0;;;190.6;100.0
60719;BME280;46567;51.660;5.824;2023-05-11T11:52:00;130230.0;;;190.6;100.0
60719;BME280;46567;51.660;5.824;2023-05-11T11:56:59;130210.0;;;190.6;100.0
60719;BME280;46567;51.660;5.824;2023-05-11T12:01:59;130200.0;;;190.6;100.0
60719;BME280;46567;51.660;5.824;2023-05-11T12:07:00;130200.0;;;190.6;100.0
60719;BME280;46567;51.660;5.824;2023-05-11T12:12:00;130190.0;;;190.6;100.0
60719;BME280;46567;51.660;5.824;2023-05-11T12:16:59;130190.0;;;190.6;100.0
60719;BME280;46567;51.660;5.824;2023-05-11T12:21:59;130170.0;;;190.6;100.0
60719;BME280;46567;51.660;5.824;2023-05-11T12:27:01;130160.0;;;190.6;100.0
60719;BME280;46567;51.660;5.824;2023-05-11T12:31:59;130130.0;;;190.6;100.0
60719;BME280;46567;51.660;5.824;2023-05-11T12:37:04;130120.0;;;190.6;100.0
60719;BME280;46567;51.660;5.824;2023-05-11T12:41:59;130080.0;;;190.6;100.0
60719;BME280;46567;51.660;5.824;2023-05-11T12:46:59;130030.0;;;190.6;100.0
60719;BME280;46567;51.660;5.824;2023-05-11T12:52:01;130000.0;;;190.6;100.0
60719;BME280;46567;51.660;5.824;2023-05-11T12:57:01;129970.0;;;190.6;100.0
60719;BME280;46567;51.660;5.824;2023-05-11T13:02:16;129940.0;;;190.6;100.0
60719;BME280;46567;51.660;5.824;2023-05-11T13:06:59;129920.0;;;190.6;100.0
60719;BME280;46567;51.660;5.824;2023-05-11T13:12:06;129900.0;;;190.6;99.5
60719;BME280;46567;51.660;5.824;2023-05-11T13:16:59;129870.0;;;190.6;96.5
60719;BME280;46567;51.660;5.824;2023-05-11T13:21:59;129850.0;;;190.6;96.0
60719;BME280;46567;51.660;5.824;2023-05-11T13:26:59;129820.0;;;190.6;95.5
60719;BME280;46567;51.660;5.824;2023-05-11T13:31:59;129790.0;;;190.6;95.5
60719;BME280;46567;51.660;5.824;2023-05-11T13:36:59;129760.0;;;190.6;94.5
60719;BME280;46567;51.660;5.824;2023-05-11T13:41:59;129740.0;;;190.6;93.0
60719;BME280;46567;51.660;5.824;2023-05-11T13:46:59;129710.0;;;190.6;92.5
60719;BME280;46567;51.660;5.824;2023-05-11T13:51:59;129680.0;;;190.6;92.0
60719;BME280;46567;51.660;5.824;2023-05-11T13:57:00;129690.0;;;190.6;90.5
60719;BME280;46567;51.660;5.824;2023-05-11T14:01:59;129670.0;;;190.6;89.5
60719;BME280;46567;51.660;5.824;2023-05-11T14:06:59;129670.0;;;190.6;88.5
60719;BME280;46567;51.660;5.824;2023-05-11T14:11:59;129670.0;;;190.6;87.5
60719;BME280;46567;51.660;5.824;2023-05-11T14:16:59;129660.0;;;190.6;86.5
60719;BME280;46567;51.660;5.824;2023-05-11T14:21:59;129670.0;;;190.6;87.0
60719;BME280;46567;51.660;5.824;2023-05-11T14:26:59;129660.0;;;190.6;87.5
60719;BME280;46567;51.660;5.824;2023-05-11T14:31:59;129640.0;;;190.6;85.5
60719;BME280;46567;51.660;5.824;2023-05-11T14:36:59;129650.0;;;190.6;85.0
60719;BME280;46567;51.660;5.824;2023-05-11T14:41:59;129660.0;;;190.6;85.0
60719;BME280;46567;51.660;5.824;2023-05-11T14:46:59;129650.0;;;190.6;84.5
60719;BME280;46567;51.660;5.824;2023-05-11T14:51:59;129670.0;;;190.6;82.5
60719;BME280;46567;51.660;5.824;2023-05-11T14:56:59;129680.0;;;190.6;84.5
60719;BME280;46567;51.660;5.824;2023-05-11T15:01:59;129680.0;;;190.6;84.5
60719;BME280;46567;51.660;5.824;2023-05-11T15:06:59;129700.0;;;190.6;83.5
60719;BME280;46567;51.660;5.824;2023-05-11T15:11:59;129720.0;;;190.6;85.0
60719;BME280;46567;51.660;5.824;2023-05-11T15:16:59;129700.0;;;190.6;84.5
60719;BME280;46567;51.660;5.824;2023-05-11T15:21:59;129690.0;;;190.6;83.0
60719;BME280;46567;51.660;5.824;2023-05-11T15:26:59;129680.0;;;190.6;84.5
60719;BME280;46567;51.660;5.824;2023-05-11T15:31:59;129670.0;;;190.6;83.0
60719;BME280;46567;51.660;5.824;2023-05-11T15:36:59;129670.0;;;190.6;82.5
60719;BME280;46567;51.660;5.824;2023-05-11T15:41:59;129670.0;;;190.6;81.5
60719;BME280;46567;51.660;5.824;2023-05-11T15:46:59;129680.0;;;190.6;78.5
60719;BME280;46567;51.660;5.824;2023-05-11T15:51:59;129700.0;;;190.6;77.5
60719;BME280;46567;51.660;5.824;2023-05-11T15:56:59;129700.0;;;190.6;78.0
60719;BME280;46567;51.660;5.824;2023-05-11T16:01:59;129690.0;;;190.6;77.5
60719;BME280;46567;51.660;5.824;2023-05-11T16:06:59;129700.0;;;190.6;78.0
60719;BME280;46567;51.660;5.824;2023-05-11T16:11:59;129710.0;;;190.6;78.5
60719;BME280;46567;51.660;5.824;2023-05-11T16:16:59;129720.0;;;190.6;80.0
60719;BME280;46567;51.660;5.824;2023-05-11T16:21:59;129730.0;;;190.6;80.5
60719;BME280;46567;51.660;5.824;2023-05-11T16:26:59;129740.0;;;190.6;81.5
60719;BME280;46567;51.660;5.824;2023-05-11T16:31:59;129750.0;;;190.6;82.0
60719;BME280;46567;51.660;5.824;2023-05-11T16:36:59;129760.0;;;190.6;82.5
60719;BME280;46567;51.660;5.824;2023-05-11T16:41:59;129770.0;;;190.6;82.0
60719;BME280;46567;51.660;5.824;2023-05-11T16:46:59;129780.0;;;190.6;84.0
60719;BME280;46567;51.660;5.824;2023-05-11T16:51:59;129800.0;;;190.6;85.0
60719;BME280;46567;51.660;5.824;2023-05-11T16:56:59;129820.0;;;190.6;85.5
60719;BME280;46567;51.660;5.824;2023-05-11T17:06:59;129880.0;;;190.6;87.5
60719;BME280;46567;51.660;5.824;2023-05-11T17:11:59;129900.0;;;190.6;87.5
60719;BME280;46567;51.660;5.824;2023-05-11T17:16:59;129930.0;;;190.6;89.0
60719;BME280;46567;51.660;5.824;2023-05-11T17:21:59;129940.0;;;190.6;91.0
60719;BME280;46567;51.660;5.824;2023-05-11T17:26:59;129960.0;;;190.6;91.5
60719;BME280;46567;51.660;5.824;2023-05-11T17:31:59;129960.0;;;190.6;92.0
60719;BME280;46567;51.660;5.824;2023-05-11T17:36:59;129970.0;;;190.6;92.0
60719;BME280;46567;51.660;5.824;2023-05-11T17:41:59;129970.0;;;190.6;92.5
60719;BME280;46567;51.660;5.824;2023-05-11T17:46:59;129980.0;;;190.6;92.5
60719;BME280;46567;51.660;5.824;2023-05-11T17:51:59;129990.0;;;190.6;92.5
60719;BME280;46567;51.660;5.824;2023-05-11T17:56:59;130020.0;;;190.6;93.0
60719;BME280;46567;51.660;5.824;2023-05-11T18:01:59;130010.0;;;190.6;94.0
60719;BME280;46567;51.660;5.824;2023-05-11T18:06:59;130030.0;;;190.6;93.5
60719;BME280;46567;51.660;5.824;2023-05-11T18:11:59;130060.0;;;190.6;92.5
60719;BME280;46567;51.660;5.824;2023-05-11T18:16:59;130100.0;;;190.6;93.0
60719;BME280;46567;51.660;5.824;2023-05-11T18:21:59;130110.0;;;190.6;93.0
60719;BME280;46567;51.660;5.824;2023-05-11T18:26:59;130130.0;;;190.6;93.5
60719;BME280;46567;51.660;5.824;2023-05-11T18:31:59;130150.0;;;190.6;93.5
60719;BME280;46567;51.660;5.824;2023-05-11T18:37:00;130180.0;;;190.6;94.0
60719;BME280;46567;51.660;5.824;2023-05-11T18:41:59;130230.0;;;190.6;95.5
60719;BME280;46567;51.660;5.824;2023-05-11T18:46:59;130270.0;;;190.6;97.0
60719;BME280;46567;51.660;5.824;2023-05-11T18:51:59;130300.0;;;190.6;98.5
60719;BME280;46567;51.660;5.824;2023-05-11T18:56:59;130330.0;;;190.6;100.0
60719;BME280;46567;51.660;5.824;2023-05-11T19:01:59;130360.0;;;190.6;100.0
60719;BME280;46567;51.660;5.824;2023-05-11T19:06:59;130380.0;;;190.6;100.0
60719;BME280;46567;51.660;5.824;2023-05-11T19:11:59;130380.0;;;190.6;100.0
60719;BME280;46567;51.660;5.824;2023-05-11T19:16:59;130390.0;;;190.6;100.0
60719;BME280;46567;51.660;5.824;2023-05-11T19:21:59;130400.0;;;190.6;100.0
60719;BME280;46567;51.660;5.824;2023-05-11T19:26:59;130420.0;;;190.6;100.0
60719;BME280;46567;51.660;5.824;2023-05-11T19:31:59;130440.0;;;190.6;100.0
60719;BME280;46567;51.660;5.824;2023-05-11T19:36:59;130490.0;;;190.6;100.0
60719;BME280;46567;51.660;5.824;2023-05-11T19:41:59;130500.0;;;190.6;100.0
60719;BME280;46567;51.660;5.824;2023-05-11T19:46:59;130510.0;;;190.6;100.0
60719;BME280;46567;51.660;5.824;2023-05-11T19:51:59;130520.0;;;190.6;100.0
60719;BME280;46567;51.660;5.824;2023-05-11T19:56:59;130530.0;;;190.6;100.0
60719;BME280;46567;51.660;5.824;2023-05-11T20:02:00;130560.0;;;190.6;100.0
60719;BME280;46567;51.660;5.824;2023-05-11T20:11:59;130590.0;;;190.6;100.0
60719;BME280;46567;51.660;5.824;2023-05-11T20:21:59;130610.0;;;190.6;100.0
60719;BME280;46567;51.660;5.824;2023-05-11T20:26:59;130610.0;;;190.6;100.0
60719;BME280;46567;51.660;5.824;2023-05-11T20:31:59;130620.0;;;190.6;100.0
60719;BME280;46567;51.660;5.824;2023-05-11T20:36:59;130650.0;;;190.6;100.0
60719;BME280;46567;51.660;5.824;2023-05-11T20:42:02;130630.0;;;190.6;100.0
60719;BME280;46567;51.660;5.824;2023-05-11T20:46:59;130640.0;;;190.6;100.0
60719;BME280;46567;51.660;5.824;2023-05-11T20:51:59;130640.0;;;190.6;100.0
60719;BME280;46567;51.660;5.824;2023-05-11T20:56:59;130630.0;;;190.6;100.0
60719;BME280;46567;51.660;5.824;2023-05-11T21:01:59;130620.0;;;190.6;100.0
60719;BME280;46567;51.660;5.824;2023-05-11T21:06:59;130610.0;;;190.6;100.0
60719;BME280;46567;51.660;5.824;2023-05-11T21:11:59;130600.0;;;190.6;100.0
60719;BME280;46567;51.660;5.824;2023-05-11T21:16:59;130590.0;;;190.6;100.0
60719;BME280;46567;51.660;5.824;2023-05-11T21:21:59;130590.0;;;190.6;100.0
60719;BME280;46567;51.660;5.824;2023-05-11T21:26:59;130610.0;;;190.6;100.0
60719;BME280;46567;51.660;5.824;2023-05-11T21:31:59;130610.0;;;190.6;100.0
60719;BME280;46567;51.660;5.824;2023-05-11T21:37:01;130610.0;;;190.6;100.0
60719;BME280;46567;51.660;5.824;2023-05-11T21:42:00;130640.0;;;190.6;100.0
60719;BME280;46567;51.660;5.824;2023-05-11T21:46:59;130650.0;;;190.6;100.0
60719;BME280;46567;51.660;5.824;2023-05-11T21:51:59;130650.0;;;190.6;100.0
60719;BME280;46567;51.660;5.824;2023-05-11T21:56:59;130680.0;;;190.6;100.0
60719;BME280;46567;51.660;5.824;2023-05-11T22:01:59;130700.0;;;190.6;100.0
60719;BME280;46567;51.660;5.824;2023-05-11T22:06:59;130760.0;;;190.6;100.0
60719;BME280;46567;51.660;5.824;2023-05-11T22:11:59;130750.0;;;190.6;100.0
60719;BME280;46567;51.660;5.824;2023-05-11T22:16:59;130770.0;;;190.6;100.0
60719;BME280;46567;51.660;5.824;2023-05-11T22:21:59;130780.0;;;190.6;100.0
60719;BME280;46567;51.660;5.824;2023-05-11T22:26:59;130780.0;;;190.6;100.0
60719;BME280;46567;51.660;5.824;2023-05-11T22:31:59;130790.0;;;190.6;100.0
60719;BME280;46567;51.660;5.824;2023-05-11T22:37:00;130780.0;;;190.6;100.0
60719;BME280;46567;51.660;5.824;2023-05-11T22:41:59;130810.0;;;190.6;100.0
60719;BME280;46567;51.660;5.824;2023-05-11T22:46:59;130820.0;;;190.6;100.0
60719;BME280;46567;51.660;5.824;2023-05-11T22:51:59;130830.0;;;190.6;100.0
60719;BME280;46567;51.660;5.824;2023-05-11T22:57:00;130810.0;;;190.6;100.0
60719;BME280;46567;51.660;5.824;2023-05-11T23:02:00;130800.0;;;190.6;100.0
60719;BME280;46567;51.660;5.824;2023-05-11T23:06:59;130790.0;;;190.6;100.0
60719;BME280;46567;51.660;5.824;2023-05-11T23:11:59;130780.0;;;190.6;100.0
60719;BME280;46567;51.660;5.824;2023-05-11T23:16:59;130760.0;;;190.6;100.0
60719;BME280;46567;51.660;5.824;2023-05-11T23:21:59;130770.0;;;190.6;100.0
60719;BME280;46567;51.660;5.824;2023-05-11T23:26:59;130780.0;;;190.6;100.0
60719;BME280;46567;51.660;5.824;2023-05-11T23:31:59;130790.0;;;190.6;100.0
60719;BME280;46567;51.660;5.824;2023-05-11T23:36:59;130790.0;;;190.6;100.0
60719;BME280;46567;51.660;5.824;2023-05-11T23:41:59;130780.0;;;190.6;100.0
60719;BME280;46567;51.660;5.824;2023-05-11T23:46:59;130810.0;;;190.6;100.0
60719;BME280;46567;51.660;5.824;2023-05-11T23:51:59;130820.0;;;190.6;100.0
60719;BME280;46567;51.660;5.824;2023-05-11T23:56:59;130840.0;;;190.6;100.0
